Time;durP1;ratioP1;P1;durP2;ratioP2;P2;SDS_P1;SDS_P2;PMS_P1;PMS_P2;Temp;Humidity;BMP_temperature;BMP_pressure;BME280_temperature;BME280_humidity;BME280_pressure;Samples;Min_cycle;Max_cycle;Signal;HPM_P1;HPM_P2
2023/02/20 00:02:15;;;;;;;1.23;0.97;;;2.70;99.90;2.50;101196.00;;;;4911983;28;106736;-67
2023/02/20 00:04:40;;;;;;;1.87;1.00;;;2.70;99.90;2.50;101204.00;;;;4905464;28;87754;-67
2023/02/20 00:07:06;;;;;;;2.53;1.37;;;2.80;99.90;2.50;101202.00;;;;4909454;28;107699;-66
2023/02/20 00:09:32;;;;;;;1.33;1.23;;;2.70;99.90;2.50;101212.00;;;;4907798;28;108587;-67
2023/02/20 00:11:57;;;;;;;1.63;1.10;;;2.70;99.90;2.60;101207.00;;;;4909484;28;106852;-67
2023/02/20 00:14:23;;;;;;;2.67;1.27;;;2.80;99.90;2.60;101203.00;;;;4911080;28;117626;-67
2023/02/20 00:16:49;;;;;;;1.33;1.13;;;2.80;99.90;2.60;101196.00;;;;4913681;28;88262;-67
2023/02/20 00:19:15;;;;;;;2.03;0.80;;;2.90;99.90;2.70;101188.00;;;;4912432;28;109879;-68
2023/02/20 00:21:50;;;;;;;2.67;0.90;;;3.50;99.90;2.70;101199.00;;;;4907109;28;92641;-67
2023/02/20 00:24:17;;;;;;;7.83;1.77;;;2.90;99.90;2.80;101182.00;;;;4909041;28;88067;-67
2023/02/20 00:26:49;;;;;;;1.80;1.20;;;3.10;99.90;2.80;101180.00;;;;4908731;28;87699;-67
2023/02/20 00:29:18;;;;;;;2.53;1.80;;;2.90;99.90;2.80;101179.00;;;;4910331;28;86903;-67
2023/02/20 00:31:56;;;;;;;1.33;0.80;;;3.10;99.90;2.80;101180.00;;;;4910466;28;88015;-68
2023/02/20 00:34:26;;;;;;;1.17;0.90;;;3.10;99.90;2.90;101175.00;;;;4892891;28;88770;-67
2023/02/20 00:36:52;;;;;;;1.80;1.10;;;3.20;99.90;2.90;101157.00;;;;4907532;28;89322;-68
2023/02/20 00:39:18;;;;;;;1.53;1.40;;;3.10;99.90;2.90;101156.00;;;;4907716;28;110699;-68
2023/02/20 00:41:44;;;;;;;1.90;1.07;;;3.10;99.90;3.00;101153.00;;;;4910889;28;87659;-68
2023/02/20 00:44:10;;;;;;;2.47;1.30;;;3.10;99.90;2.90;101158.00;;;;4909084;28;118414;-68
2023/02/20 00:46:36;;;;;;;2.50;1.00;;;3.10;99.90;2.90;101151.00;;;;4911055;28;88397;-68
2023/02/20 00:49:03;;;;;;;2.40;1.57;;;4.00;99.90;2.90;101156.00;;;;4907983;28;110253;-68
2023/02/20 00:51:30;;;;;;;2.77;1.50;;;3.10;99.90;2.90;101149.00;;;;4893815;28;88047;-68
2023/02/20 00:53:56;;;;;;;1.70;1.33;;;3.10;99.90;2.90;101141.00;;;;4911246;28;88239;-68
2023/02/20 00:56:21;;;;;;;1.17;1.00;;;3.20;99.90;2.90;101143.00;;;;4907010;28;116072;-67
2023/02/20 00:58:47;;;;;;;2.77;1.27;;;3.20;99.90;2.90;101149.00;;;;4908976;28;110549;-68
2023/02/20 01:01:13;;;;;;;1.53;0.73;;;3.10;99.90;2.80;101148.00;;;;4894116;28;88919;-67
2023/02/20 01:03:39;;;;;;;4.97;1.27;;;3.10;99.90;2.80;101148.00;;;;4908854;28;88853;-67
2023/02/20 01:06:05;;;;;;;1.33;1.23;;;3.10;99.90;2.80;101146.00;;;;4909837;28;115825;-67
2023/02/20 01:08:30;;;;;;;1.43;1.33;;;3.10;99.90;2.70;101136.00;;;;4890465;28;110213;-67
2023/02/20 01:10:56;;;;;;;1.30;1.10;;;3.00;99.90;2.70;101125.00;;;;4912410;28;108245;-69
2023/02/20 01:13:22;;;;;;;0.80;0.80;;;3.10;99.90;2.60;101129.00;;;;4886195;28;117649;-68
2023/02/20 01:15:47;;;;;;;0.97;0.87;;;3.00;99.90;2.60;101128.00;;;;4891904;28;117508;-68
2023/02/20 01:18:14;;;;;;;0.93;0.80;;;2.90;99.90;2.50;101125.00;;;;4890712;28;109773;-68
2023/02/20 01:20:39;;;;;;;0.83;0.83;;;2.80;99.90;2.40;101124.00;;;;4885525;28;109107;-68
2023/02/20 01:23:05;;;;;;;1.37;0.90;;;2.70;99.90;2.30;101123.00;;;;4889942;28;118662;-68
2023/02/20 01:25:31;;;;;;;0.90;0.90;;;2.70;99.90;2.20;101118.00;;;;4887625;28;92852;-68
2023/02/20 01:27:56;;;;;;;5.13;1.43;;;2.40;99.90;2.10;101120.00;;;;4891074;28;107439;-68
2023/02/20 01:30:22;;;;;;;2.70;1.63;;;2.40;99.90;2.00;101118.00;;;;4892746;28;87976;-68
2023/02/20 01:32:47;;;;;;;4.10;1.40;;;2.30;99.90;1.90;101122.00;;;;4889311;28;116493;-68
2023/02/20 01:35:15;;;;;;;2.37;1.20;;;2.20;99.90;1.80;101115.00;;;;4889488;28;106708;-68
2023/02/20 01:37:40;;;;;;;2.13;1.60;;;2.10;99.90;1.70;101120.00;;;;4890686;28;87978;-68
2023/02/20 01:40:12;;;;;;;1.87;1.37;;;2.10;99.90;1.70;101130.00;;;;4892674;28;109207;-69
2023/02/20 01:42:38;;;;;;;2.07;1.40;;;2.00;99.90;1.60;101113.00;;;;4890106;28;87986;-68
2023/02/20 01:45:32;;;;;;;3.77;1.60;;;1.90;99.90;1.40;101111.00;;;;4891342;28;118420;-68
2023/02/20 01:47:58;;;;;;;2.10;1.67;;;1.90;99.90;1.40;101096.00;;;;4892263;28;88053;-68
2023/02/20 01:50:30;;;;;;;1.47;1.37;;;1.80;99.90;1.30;101102.00;;;;4890250;28;108572;-68
2023/02/20 01:53:04;;;;;;;1.43;1.30;;;1.70;99.90;1.30;101088.00;;;;4888066;28;88492;-68
2023/02/20 01:55:43;;;;;;;3.40;1.70;;;1.50;99.90;1.20;101076.00;;;;4886498;28;111409;-68
2023/02/20 01:58:22;;;;;;;1.13;1.03;;;1.60;99.90;1.20;101077.00;;;;4904035;28;87909;-68
2023/02/20 02:00:47;;;;;;;3.20;1.60;;;1.50;99.90;1.10;101062.00;;;;4892187;28;99731;-68
2023/02/20 02:03:30;;;;;;;2.00;1.40;;;1.50;99.90;1.10;101069.00;;;;4890296;28;117445;-68
2023/02/20 02:06:06;;;;;;;3.40;2.00;;;1.40;99.90;1.10;101079.00;;;;4890645;28;107527;-68
2023/02/20 02:08:34;;;;;;;3.30;2.23;;;1.40;99.90;1.10;101081.00;;;;4890549;28;87116;-68
2023/02/20 02:11:13;;;;;;;3.53;2.00;;;1.40;99.90;1.10;101079.00;;;;4905712;28;87897;-68
2023/02/20 02:13:41;;;;;;;2.00;1.87;;;1.40;99.90;1.10;101068.00;;;;4892246;28;109410;-68
2023/02/20 02:16:25;;;;;;;2.80;1.97;;;1.40;99.90;1.20;101053.00;;;;4888820;28;88745;-69
2023/02/20 02:19:03;;;;;;;4.00;2.27;;;1.50;99.90;1.30;101053.00;;;;4892444;28;89158;-69
2023/02/20 02:21:50;;;;;;;1.97;1.83;;;1.50;99.90;1.40;101060.00;;;;4894174;28;99369;-68
2023/02/20 02:24:55;;;;;;;1.87;1.77;;;1.60;99.90;1.50;101063.00;;;;4890880;28;109921;-70
2023/02/20 02:27:48;;;;;;;4.80;3.47;;;1.70;99.90;1.60;101070.00;;;;4890043;28;87872;-70
2023/02/20 02:31:10;;;;;;;10.73;3.30;;;1.80;99.90;1.70;101053.00;;;;4895533;28;88255;-70
2023/02/20 02:34:13;;;;;;;4.17;2.90;;;2.00;99.90;1.80;101047.00;;;;4893291;28;87799;-70
2023/02/20 02:37:27;;;;;;;4.50;3.33;;;2.10;99.90;1.90;101030.00;;;;4891558;28;98911;-70
2023/02/20 02:40:13;;;;;;;6.47;3.20;;;2.20;99.90;2.10;101021.00;;;;4899069;28;88698;-67
2023/02/20 02:43:03;;;;;;;2.70;2.00;;;2.30;99.90;2.20;101016.00;;;;4905052;28;88165;-69
2023/02/20 02:45:44;;;;;;;2.30;2.03;;;2.40;99.90;2.30;101011.00;;;;4892331;28;100155;-67
2023/02/20 02:48:39;;;;;;;2.53;2.03;;;2.50;99.90;2.50;101005.00;;;;4898202;28;100541;-68
2023/02/20 02:51:29;;;;;;;4.50;2.90;;;2.70;99.90;2.60;100998.00;;;;4886742;28;89890;-68
2023/02/20 02:54:18;;;;;;;3.13;2.67;;;2.80;99.90;2.70;100996.00;;;;4891122;28;88069;-69
2023/02/20 02:56:47;;;;;;;3.63;2.63;;;3.60;99.90;2.80;100999.00;;;;4894005;28;88255;-67
2023/02/20 02:59:28;;;;;;;5.03;3.10;;;3.00;99.90;2.90;101013.00;;;;4895002;28;102150;-70
2023/02/20 03:02:02;;;;;;;3.03;2.33;;;3.10;99.90;3.00;101011.00;;;;4892802;28;103157;-71
2023/02/20 03:04:30;;;;;;;3.17;2.53;;;3.20;99.90;3.20;101015.00;;;;4904972;28;87142;-67
2023/02/20 03:07:01;;;;;;;3.47;2.27;;;3.30;99.90;3.30;101020.00;;;;4890784;28;87909;-68
2023/02/20 03:09:34;;;;;;;3.80;1.97;;;3.40;99.90;3.40;101020.00;;;;4895170;28;109918;-68
2023/02/20 03:12:02;;;;;;;3.23;2.67;;;3.60;99.90;3.50;101007.00;;;;4892330;28;110526;-67
2023/02/20 03:17:31;;;;;;;2.57;1.73;;;4.60;99.90;3.70;100999.00;;;;4908679;28;87935;-68
2023/02/20 03:20:09;;;;;;;2.03;1.80;;;3.80;99.90;3.80;101002.00;;;;4880746;28;90479;-68
2023/02/20 03:22:47;;;;;;;3.93;2.03;;;4.00;99.90;3.80;100999.00;;;;4891748;28;103797;-69
2023/02/20 03:25:22;;;;;;;2.63;2.00;;;3.90;99.90;3.90;100987.00;;;;4909099;28;87824;-70
2023/02/20 03:27:59;;;;;;;2.17;1.97;;;4.10;99.90;3.90;100981.00;;;;4906348;28;94665;-67
2023/02/20 03:30:44;;;;;;;2.27;2.03;;;4.20;99.90;4.00;100987.00;;;;4891609;28;92632;-68
2023/02/20 03:44:33;;;;;;;1.50;1.40;;;4.40;99.90;4.30;100994.00;;;;4897696;28;87823;-67
2023/02/20 03:47:01;;;;;;;2.83;2.63;;;4.40;99.90;4.30;100999.00;;;;4908847;28;88020;-68
2023/02/20 03:49:38;;;;;;;3.13;1.80;;;5.20;99.90;4.40;100997.00;;;;4906483;28;87688;-67
2023/02/20 03:52:05;;;;;;;2.43;2.20;;;4.60;99.90;4.50;100994.00;;;;4913545;28;109608;-69
2023/02/20 03:54:32;;;;;;;2.67;2.03;;;4.60;99.90;4.50;100979.00;;;;4910395;28;110112;-69
2023/02/20 03:57:22;;;;;;;3.63;2.43;;;5.00;99.90;4.60;100965.00;;;;4894489;28;110610;-68
2023/02/20 04:00:05;;;;;;;6.50;2.43;;;4.80;99.90;4.60;100976.00;;;;4910377;28;96727;-69
2023/02/20 04:02:37;;;;;;;2.27;2.07;;;4.80;99.90;4.70;100963.00;;;;4893965;28;89430;-69
2023/02/20 04:05:09;;;;;;;5.73;2.80;;;4.90;99.90;4.70;100964.00;;;;4892548;28;108330;-69
2023/02/20 04:08:08;;;;;;;3.47;3.17;;;4.90;99.90;4.70;100963.00;;;;4907982;28;87795;-69
2023/02/20 04:10:46;;;;;;;2.80;2.47;;;5.00;99.90;4.70;100966.00;;;;4876268;28;87840;-69
2023/02/20 04:13:13;;;;;;;3.47;2.03;;;4.90;99.90;4.70;100960.00;;;;4887802;28;108744;-69
2023/02/20 04:15:41;;;;;;;3.77;2.03;;;4.90;99.90;4.80;100964.00;;;;4911525;28;117890;-69
2023/02/20 04:18:13;;;;;;;2.03;1.83;;;5.10;99.90;4.80;100950.00;;;;4893576;28;88031;-70
2023/02/20 04:20:39;;;;;;;3.37;2.83;;;4.90;99.90;4.80;100946.00;;;;4874420;28;87892;-69
2023/02/20 04:23:18;;;;;;;2.20;2.07;;;5.00;99.90;4.80;100946.00;;;;4889309;28;100476;-70
2023/02/20 04:25:58;;;;;;;4.37;2.80;;;5.00;99.90;4.80;100949.00;;;;4890949;28;87885;-69
2023/02/20 04:28:25;;;;;;;2.53;2.30;;;4.90;99.90;4.80;100942.00;;;;4906517;28;95417;-70
2023/02/20 04:30:51;;;;;;;1.93;1.83;;;5.00;99.90;4.80;100946.00;;;;4913138;28;88665;-69
2023/02/20 04:33:18;;;;;;;2.27;2.03;;;4.90;99.90;4.80;100957.00;;;;4908756;28;110644;-69
2023/02/20 04:35:43;;;;;;;2.70;2.43;;;5.00;99.90;4.80;100955.00;;;;4905309;28;108467;-69
2023/02/20 04:38:10;;;;;;;2.80;2.13;;;5.20;99.90;4.90;100958.00;;;;4913446;28;109909;-71
2023/02/20 04:40:36;;;;;;;2.33;2.00;;;5.00;99.90;4.90;100963.00;;;;4908759;28;97369;-69
2023/02/20 04:43:02;;;;;;;3.63;2.33;;;5.00;99.90;4.90;100961.00;;;;4890554;28;99589;-71
2023/02/20 04:45:27;;;;;;;4.67;2.93;;;5.20;99.90;5.00;100968.00;;;;4908506;28;88823;-71
2023/02/20 04:47:53;;;;;;;3.13;1.70;;;5.10;99.90;5.00;100968.00;;;;4904883;28;109838;-69
2023/02/20 04:50:27;;;;;;;3.87;2.50;;;5.10;99.90;5.00;100962.00;;;;4911855;28;93447;-69
2023/02/20 04:52:53;;;;;;;2.50;2.13;;;4.70;99.90;5.10;100966.00;;;;4897836;28;88053;-69
2023/02/20 04:55:19;;;;;;;5.60;2.57;;;5.30;99.90;5.10;100957.00;;;;4909425;28;116520;-69
2023/02/20 04:57:46;;;;;;;3.10;2.47;;;5.20;99.90;5.10;100949.00;;;;4910476;28;110535;-69
2023/02/20 05:00:14;;;;;;;2.60;2.27;;;5.30;99.90;5.20;100948.00;;;;4907278;28;87821;-69
2023/02/20 05:02:40;;;;;;;2.97;2.03;;;5.30;99.90;5.20;100949.00;;;;4906607;28;90234;-68
2023/02/20 05:05:16;;;;;;;2.90;2.40;;;5.40;99.90;5.30;100930.00;;;;4908788;28;108348;-69
2023/02/20 05:07:42;;;;;;;3.57;2.60;;;5.40;99.90;5.30;100927.00;;;;4909201;28;88126;-68
2023/02/20 05:10:12;;;;;;;5.43;2.47;;;5.50;99.90;5.30;100927.00;;;;4907835;28;90543;-69
2023/02/20 05:12:38;;;;;;;3.27;2.20;;;5.50;99.90;5.30;100923.00;;;;4911268;28;87805;-68
2023/02/20 05:15:04;;;;;;;3.43;2.50;;;5.50;99.90;5.30;100923.00;;;;4909747;28;116678;-68
2023/02/20 05:17:30;;;;;;;3.67;2.43;;;5.60;99.90;5.40;100936.00;;;;4904752;28;89455;-70
2023/02/20 05:19:55;;;;;;;2.77;2.17;;;5.50;99.90;5.40;100926.00;;;;4909196;28;108775;-67
2023/02/20 05:22:21;;;;;;;4.17;2.27;;;5.50;99.90;5.40;100911.00;;;;4911654;28;118210;-68
2023/02/20 05:24:49;;;;;;;3.93;2.47;;;6.00;99.90;5.40;100910.00;;;;4911268;28;88702;-70
2023/02/20 05:27:19;;;;;;;3.73;2.63;;;5.50;99.90;5.40;100907.00;;;;4910605;28;88059;-69
2023/02/20 05:29:51;;;;;;;3.97;2.87;;;5.60;99.90;5.40;100905.00;;;;4891383;28;88232;-70
2023/02/20 05:32:18;;;;;;;3.23;2.30;;;5.60;99.90;5.40;100899.00;;;;4912480;28;107991;-69
2023/02/20 05:34:44;;;;;;;2.83;2.13;;;5.60;99.90;5.50;100898.00;;;;4909267;28;87893;-68
2023/02/20 05:37:14;;;;;;;3.37;2.23;;;6.30;99.90;5.50;100894.00;;;;4909112;28;99962;-69
2023/02/20 05:39:40;;;;;;;4.10;3.10;;;5.60;99.90;5.50;100889.00;;;;4911005;28;99563;-67
2023/02/20 05:42:06;;;;;;;4.40;3.47;;;5.70;99.90;5.60;100880.00;;;;4910121;28;89145;-71
2023/02/20 05:44:32;;;;;;;4.57;2.93;;;5.70;99.90;5.60;100890.00;;;;4912360;28;88989;-68
2023/02/20 05:46:58;;;;;;;4.33;3.13;;;6.60;99.90;5.70;100877.00;;;;4912630;28;87914;-69
2023/02/20 05:49:24;;;;;;;5.40;3.63;;;5.70;99.90;5.70;100873.00;;;;4911494;28;107166;-68
2023/02/20 05:51:51;;;;;;;6.17;3.93;;;6.70;99.90;5.80;100872.00;;;;4906533;28;119253;-68
2023/02/20 05:54:18;;;;;;;4.20;3.27;;;6.80;99.90;5.80;100875.00;;;;4888112;28;88117;-68
2023/02/20 05:56:46;;;;;;;5.63;3.63;;;6.20;99.90;5.90;100869.00;;;;4910332;28;87761;-69
2023/02/20 05:59:15;;;;;;;5.07;4.00;;;6.00;99.90;5.90;100872.00;;;;4912624;28;87977;-68
2023/02/20 06:01:41;;;;;;;11.87;4.30;;;6.40;99.90;5.90;100852.00;;;;4910087;28;87895;-70
2023/02/20 06:04:07;;;;;;;6.50;4.67;;;6.20;99.90;6.00;100843.00;;;;4909216;28;115355;-68
2023/02/20 06:06:36;;;;;;;4.93;3.43;;;6.90;99.90;6.00;100843.00;;;;4906368;28;110793;-70
2023/02/20 06:09:06;;;;;;;5.30;3.63;;;6.10;99.90;6.00;100826.00;;;;4902643;28;94163;-68
2023/02/20 06:11:33;;;;;;;7.13;4.23;;;6.10;99.90;6.10;100837.00;;;;4907884;28;89062;-70
2023/02/20 06:13:59;;;;;;;5.80;3.33;;;6.10;99.90;6.10;100825.00;;;;4908384;28;108977;-70
2023/02/20 06:16:28;;;;;;;4.83;4.07;;;6.90;99.90;6.20;100827.00;;;;4908129;28;88531;-68
2023/02/20 06:18:55;;;;;;;5.43;3.63;;;6.30;99.90;6.20;100830.00;;;;4894832;28;87871;-68
2023/02/20 06:21:22;;;;;;;5.10;3.67;;;6.30;99.90;6.30;100819.00;;;;4906975;28;106120;-68
2023/02/20 06:23:49;;;;;;;6.90;3.27;;;6.30;99.90;6.30;100814.00;;;;4908685;28;87967;-69
2023/02/20 06:26:16;;;;;;;5.03;3.17;;;6.50;99.90;6.40;100817.00;;;;4906536;28;102765;-70
2023/02/20 06:28:41;;;;;;;5.63;3.73;;;6.50;99.90;6.40;100824.00;;;;4892538;28;88062;-71
2023/02/20 06:31:09;;;;;;;4.80;2.87;;;6.80;99.90;6.40;100809.00;;;;4890457;28;109634;-67
2023/02/20 06:33:35;;;;;;;6.43;3.87;;;6.60;99.90;6.40;100807.00;;;;4904509;28;105234;-69
2023/02/20 06:36:01;;;;;;;5.90;3.33;;;7.10;99.90;6.50;100819.00;;;;4908395;28;87966;-69
2023/02/20 06:38:27;;;;;;;3.73;2.50;;;6.60;99.90;6.50;100808.00;;;;4905678;28;88574;-70
2023/02/20 06:40:53;;;;;;;6.83;3.70;;;6.70;99.90;6.50;100824.00;;;;4906777;28;117748;-69
2023/02/20 06:43:19;;;;;;;5.60;3.23;;;6.70;99.90;6.60;100824.00;;;;4907793;28;117392;-67
2023/02/20 06:45:45;;;;;;;4.70;3.20;;;6.70;99.90;6.60;100814.00;;;;4908448;28;97348;-67
2023/02/20 06:48:15;;;;;;;6.27;3.23;;;8.40;99.90;6.60;100819.00;;;;4909871;28;87785;-68
2023/02/20 06:50:41;;;;;;;4.60;3.13;;;6.70;99.90;6.70;100829.00;;;;4907585;28;88232;-67
2023/02/20 06:53:07;;;;;;;4.30;2.63;;;7.50;99.90;6.70;100830.00;;;;4909579;28;88023;-67
2023/02/20 06:55:34;;;;;;;4.70;3.00;;;6.80;99.90;6.70;100814.00;;;;4906693;28;88009;-67
2023/02/20 06:58:00;;;;;;;5.23;3.03;;;7.00;99.90;6.80;100822.00;;;;4892829;28;88835;-69
2023/02/20 07:00:26;;;;;;;4.80;2.80;;;6.90;99.90;6.80;100818.00;;;;4910469;28;117803;-69
2023/02/20 07:02:52;;;;;;;5.07;3.47;;;7.40;99.90;6.90;100815.00;;;;4909556;28;88854;-69
2023/02/20 07:05:18;;;;;;;6.70;3.83;;;7.80;99.90;6.90;100811.00;;;;4906500;28;109737;-69
2023/02/20 07:07:44;;;;;;;6.53;3.17;;;7.00;99.90;7.00;100803.00;;;;4910664;28;99871;-69
2023/02/20 07:10:10;;;;;;;5.93;3.57;;;7.80;99.90;7.00;100799.00;;;;4893548;28;87950;-68
2023/02/20 07:12:38;;;;;;;10.03;4.50;;;7.20;99.90;7.00;100807.00;;;;4908364;28;116489;-67
2023/02/20 07:15:08;;;;;;;5.30;3.67;;;7.10;99.90;7.10;100807.00;;;;4908082;28;87122;-67
2023/02/20 07:17:34;;;;;;;4.83;3.10;;;7.20;99.90;7.10;100819.00;;;;4896321;28;88009;-66
2023/02/20 07:20:00;;;;;;;6.00;3.53;;;7.30;99.90;7.10;100823.00;;;;4906351;28;88260;-67
2023/02/20 07:22:25;;;;;;;6.97;3.60;;;7.30;99.90;7.10;100801.00;;;;4907391;28;89245;-70
2023/02/20 07:24:52;;;;;;;7.60;2.93;;;7.20;99.90;7.20;100809.00;;;;4908904;28;110531;-69
2023/02/20 07:27:18;;;;;;;4.70;2.87;;;7.40;99.90;7.20;100812.00;;;;4909881;28;88036;-68
2023/02/20 07:29:45;;;;;;;4.37;2.27;;;7.50;99.90;7.20;100816.00;;;;4909157;28;88182;-66
2023/02/20 07:32:13;;;;;;;6.10;3.17;;;7.30;99.90;7.30;100809.00;;;;4906056;28;88575;-67
2023/02/20 07:34:38;;;;;;;4.43;3.30;;;7.90;99.90;7.30;100802.00;;;;4909342;28;87870;-69
2023/02/20 07:37:04;;;;;;;4.20;2.40;;;7.80;99.90;7.30;100811.00;;;;4905868;28;107809;-66
2023/02/20 07:39:30;;;;;;;6.97;2.40;;;7.60;99.90;7.40;100808.00;;;;4906079;28;117214;-69
2023/02/20 07:41:55;;;;;;;3.77;1.87;;;7.60;99.90;7.40;100821.00;;;;4903759;28;117188;-67
2023/02/20 07:44:21;;;;;;;13.27;2.83;;;7.50;99.90;7.50;100806.00;;;;4892496;28;88179;-67
2023/02/20 07:46:47;;;;;;;3.07;2.30;;;8.30;99.90;7.50;100802.00;;;;4906998;28;108283;-70
2023/02/20 07:49:12;;;;;;;4.60;2.37;;;7.80;99.90;7.50;100804.00;;;;4908984;28;117545;-67
2023/02/20 07:51:38;;;;;;;3.13;2.63;;;7.60;99.90;7.50;100783.00;;;;4904640;28;118960;-68
2023/02/20 07:54:03;;;;;;;4.03;2.40;;;7.70;99.90;7.50;100769.00;;;;4909190;28;103040;-69
2023/02/20 07:56:30;;;;;;;4.17;2.27;;;7.60;99.90;7.50;100776.00;;;;4906026;28;108292;-69
2023/02/20 07:58:55;;;;;;;1.80;1.60;;;7.00;99.90;7.60;100748.00;;;;4907763;28;117981;-67
2023/02/20 08:01:21;;;;;;;2.27;2.03;;;7.80;99.90;7.60;100724.00;;;;4905114;28;117357;-67
2023/02/20 08:03:47;;;;;;;4.37;2.73;;;7.70;99.90;7.70;100744.00;;;;4907151;28;110235;-68
2023/02/20 08:06:16;;;;;;;3.83;2.00;;;7.70;99.90;7.90;100780.00;;;;4908159;28;97278;-68
2023/02/20 08:08:42;;;;;;;2.97;2.40;;;7.90;99.90;8.00;100792.00;;;;4908788;28;88375;-67
2023/02/20 08:11:07;;;;;;;1.67;1.37;;;8.10;99.90;8.10;100776.00;;;;4903903;28;117440;-67
2023/02/20 08:13:33;;;;;;;3.97;1.77;;;8.20;99.90;8.10;100767.00;;;;4908887;28;110162;-68
2023/02/20 08:15:59;;;;;;;3.90;1.83;;;8.20;99.90;8.20;100757.00;;;;4907343;28;88226;-69
2023/02/20 08:18:25;;;;;;;2.67;1.80;;;8.20;99.90;8.20;100741.00;;;;4910013;28;88162;-68
2023/02/20 08:20:51;;;;;;;2.97;1.77;;;8.30;99.90;8.20;100755.00;;;;4907292;28;110106;-67
2023/02/20 08:23:22;;;;;;;2.63;1.90;;;8.30;99.90;8.30;100723.00;;;;4907419;28;89088;-68
2023/02/20 08:25:48;;;;;;;1.53;1.43;;;8.40;99.90;8.40;100727.00;;;;4905372;28;88186;-67
2023/02/20 08:28:13;;;;;;;3.33;1.83;;;8.40;99.90;8.50;100728.00;;;;4910149;28;87533;-67
2023/02/20 08:30:39;;;;;;;6.87;2.13;;;8.50;99.90;8.50;100773.00;;;;4905617;28;114879;-68
2023/02/20 08:33:05;;;;;;;4.27;1.77;;;8.60;99.90;8.60;100793.00;;;;4906557;28;110472;-68
2023/02/20 08:35:34;;;;;;;4.10;1.80;;;8.70;99.90;8.60;100768.00;;;;4907210;28;108165;-68
2023/02/20 08:38:06;;;;;;;3.77;1.73;;;8.60;99.90;8.60;100714.00;;;;4906703;28;89189;-69
2023/02/20 08:40:32;;;;;;;2.70;1.53;;;8.70;99.90;8.60;100721.00;;;;4906387;28;109610;-67
2023/02/20 08:42:58;;;;;;;2.20;1.30;;;8.70;99.90;8.60;100704.00;;;;4907848;28;88078;-68
2023/02/20 08:45:23;;;;;;;2.13;1.87;;;8.70;99.90;8.70;100703.00;;;;4890449;28;88450;-67
2023/02/20 08:47:50;;;;;;;2.07;1.80;;;8.70;99.90;8.80;100712.00;;;;4907153;28;89146;-68
2023/02/20 08:50:18;;;;;;;2.03;1.43;;;8.80;99.90;8.80;100704.00;;;;4907369;28;87974;-68
2023/02/20 08:52:45;;;;;;;1.97;1.50;;;8.90;99.90;8.90;100709.00;;;;4906690;28;105538;-68
2023/02/20 08:55:11;;;;;;;1.47;1.23;;;9.00;99.90;9.00;100717.00;;;;4874862;28;87836;-67
2023/02/20 08:57:37;;;;;;;1.53;1.43;;;9.10;99.90;9.10;100701.00;;;;4907277;28;115935;-68
2023/02/20 09:00:06;;;;;;;4.00;1.87;;;9.10;99.90;9.10;100701.00;;;;4907391;28;116782;-68
2023/02/20 09:02:32;;;;;;;1.93;1.63;;;9.10;99.90;9.10;100694.00;;;;4907687;28;88008;-68
2023/02/20 09:04:57;;;;;;;3.47;1.63;;;9.20;99.90;9.00;100689.00;;;;4908147;28;108011;-68
2023/02/20 09:07:24;;;;;;;2.07;1.60;;;9.20;99.90;9.00;100689.00;;;;4907037;28;116825;-69
2023/02/20 09:09:49;;;;;;;3.37;1.80;;;9.10;99.90;9.00;100706.00;;;;4907265;28;91398;-70
2023/02/20 09:12:16;;;;;;;2.73;1.90;;;9.00;99.90;8.90;100686.00;;;;4889900;28;88908;-69
2023/02/20 09:14:42;;;;;;;3.87;1.77;;;9.00;99.90;8.90;100687.00;;;;4909692;28;93948;-69
2023/02/20 09:17:08;;;;;;;2.07;1.20;;;9.10;99.90;8.80;100693.00;;;;4907838;28;116824;-68
2023/02/20 09:19:34;;;;;;;2.77;1.50;;;9.00;99.90;8.80;100670.00;;;;4910766;28;88133;-68
2023/02/20 09:22:00;;;;;;;2.47;1.70;;;8.90;99.90;8.80;100662.00;;;;4907105;28;90483;-69
2023/02/20 09:24:32;;;;;;;2.27;1.60;;;8.90;99.90;8.80;100658.00;;;;4912204;28;109034;-68
2023/02/20 09:27:00;;;;;;;1.97;1.50;;;8.90;99.90;8.80;100657.00;;;;4912501;28;87808;-68
2023/02/20 09:29:26;;;;;;;3.87;2.20;;;8.90;99.90;8.80;100652.00;;;;4910611;28;88837;-69
2023/02/20 09:31:52;;;;;;;2.57;1.73;;;8.90;99.90;8.80;100665.00;;;;4908077;28;100504;-68
2023/02/20 09:34:19;;;;;;;3.13;1.60;;;8.90;99.90;8.80;100668.00;;;;4912464;28;87753;-68
2023/02/20 09:36:44;;;;;;;3.23;1.87;;;8.90;99.90;8.80;100663.00;;;;4909367;28;88313;-68
2023/02/20 09:39:10;;;;;;;1.67;1.47;;;8.90;99.90;8.80;100669.00;;;;4889277;28;118003;-68
2023/02/20 09:42:04;;;;;;;1.87;1.70;;;8.90;99.90;8.80;100676.00;;;;4912349;28;108338;-69
2023/02/20 09:45:00;;;;;;;2.83;1.67;;;9.00;99.90;8.80;100666.00;;;;4893813;28;87875;-69
2023/02/20 09:47:58;;;;;;;2.37;1.50;;;8.90;99.90;8.80;100652.00;;;;4909443;28;88108;-69
2023/02/20 09:50:27;;;;;;;3.17;2.00;;;9.00;99.90;8.90;100649.00;;;;4909371;28;101991;-68
2023/02/20 09:53:09;;;;;;;3.13;1.87;;;9.00;99.90;8.90;100636.00;;;;4911100;28;87891;-70
2023/02/20 09:55:39;;;;;;;2.03;1.47;;;9.00;99.90;9.00;100639.00;;;;4910212;28;101103;-69
2023/02/20 09:58:16;;;;;;;5.17;1.80;;;9.10;99.90;9.00;100638.00;;;;4907680;28;118758;-69
2023/02/20 10:00:42;;;;;;;2.10;1.73;;;9.10;99.90;9.10;100643.00;;;;4908774;28;110176;-68
2023/02/20 10:03:31;;;;;;;2.30;1.43;;;9.10;99.90;9.10;100630.00;;;;4909729;28;109623;-69
2023/02/20 10:05:58;;;;;;;1.87;1.67;;;9.20;99.90;9.10;100629.00;;;;4907992;28;87875;-67
2023/02/20 10:08:24;;;;;;;3.80;2.07;;;9.20;99.90;9.20;100616.00;;;;4907379;28;117015;-68
2023/02/20 10:10:51;;;;;;;3.00;1.97;;;9.30;99.90;9.20;100618.00;;;;4910933;28;89430;-69
2023/02/20 10:13:20;;;;;;;1.70;1.17;;;9.30;99.90;9.30;100631.00;;;;4895985;28;88193;-70
2023/02/20 10:16:34;;;;;;;2.97;1.97;;;9.30;99.90;9.30;100619.00;;;;4904841;28;107558;-68
2023/02/20 10:19:19;;;;;;;3.43;2.10;;;9.40;99.90;9.40;100614.00;;;;4885176;28;95807;-68
2023/02/20 10:22:13;;;;;;;6.30;1.87;;;9.40;99.90;9.40;100618.00;;;;4907881;28;89122;-70
2023/02/20 10:25:02;;;;;;;3.33;2.03;;;9.40;99.90;9.50;100601.00;;;;4911370;28;88237;-69
2023/02/20 10:27:50;;;;;;;3.03;1.47;;;9.50;99.90;9.50;100599.00;;;;4892430;28;87973;-69
2023/02/20 10:30:35;;;;;;;1.97;1.37;;;9.60;99.90;9.60;100598.00;;;;4894399;28;110071;-68
2023/02/20 10:33:43;;;;;;;2.00;1.60;;;9.70;99.90;9.70;100583.00;;;;4891992;28;88240;-67
2023/02/20 10:36:20;;;;;;;2.07;1.27;;;9.70;99.90;9.80;100579.00;;;;4889142;28;87295;-70
2023/02/20 10:38:55;;;;;;;1.77;1.00;;;9.80;99.90;9.90;100575.00;;;;4910593;28;101954;-69
2023/02/20 10:41:34;;;;;;;1.93;1.40;;;10.00;99.90;10.10;100571.00;;;;4889533;28;89680;-68
2023/02/20 10:44:36;;;;;;;1.97;1.37;;;10.00;99.90;10.30;100567.00;;;;4891191;28;88964;-68
2023/02/20 10:47:09;;;;;;;1.67;1.43;;;10.30;99.90;10.50;100553.00;;;;4894495;28;88022;-68
2023/02/20 10:50:02;;;;;;;1.83;1.00;;;10.50;99.90;10.70;100508.00;;;;4896327;28;102625;-71
2023/02/20 10:52:50;;;;;;;1.53;0.73;;;10.80;99.90;10.80;100520.00;;;;4909941;28;99414;-69
2023/02/20 10:55:42;;;;;;;1.33;1.10;;;10.80;98.30;10.80;100512.00;;;;4913357;28;108875;-68
2023/02/20 10:58:32;;;;;;;1.73;1.07;;;10.80;98.30;10.80;100510.00;;;;4912304;28;100064;-70
2023/02/20 11:01:04;;;;;;;2.77;1.00;;;10.80;97.60;10.80;100494.00;;;;4909802;28;88099;-68
2023/02/20 11:03:46;;;;;;;1.07;0.80;;;10.80;97.30;10.80;100495.00;;;;4907902;28;110270;-70
2023/02/20 11:06:18;;;;;;;3.63;0.70;;;10.90;97.60;10.80;100494.00;;;;4893359;28;87979;-68
2023/02/20 11:08:44;;;;;;;0.83;0.83;;;10.90;97.50;10.90;100491.00;;;;4907169;28;88107;-68
2023/02/20 11:11:48;;;;;;;0.40;0.40;;;10.90;97.60;10.90;100475.00;;;;4909499;28;90593;-68
2023/02/20 11:14:34;;;;;;;1.83;0.90;;;10.90;96.70;10.90;100482.00;;;;4827362;28;88404;-70
2023/02/20 11:17:09;;;;;;;0.93;0.83;;;11.40;96.50;11.00;100483.00;;;;4811911;28;89275;-69
2023/02/20 11:19:46;;;;;;;0.83;0.70;;;11.00;95.90;11.00;100477.00;;;;4864778;28;87959;-69
2023/02/20 11:22:13;;;;;;;0.73;0.60;;;11.00;95.60;11.10;100485.00;;;;4893382;28;87825;-69
2023/02/20 11:24:44;;;;;;;1.97;1.20;;;11.10;95.20;11.10;100486.00;;;;4906552;28;88851;-68
2023/02/20 11:27:16;;;;;;;1.20;0.80;;;11.10;95.20;11.20;100473.00;;;;4909698;28;88774;-69
2023/02/20 11:30:02;;;;;;;3.40;0.70;;;11.20;95.20;11.30;100468.00;;;;4910943;28;86942;-69
2023/02/20 11:32:40;;;;;;;0.40;0.40;;;11.40;94.80;11.40;100467.00;;;;4909049;28;87908;-68